Terminal Aerodrome Forecast
Issued by NWS Charleston, WV

Current Version | Previous Version | Graphics & Text | Print | Product List | Glossary On
Versions: 1 2 3 4 5 6 7 8 9 10 11 12 13 14 15 16 17 18 19 20 21 22 23 24 25 26 27 28 29 30 31 32 33
000
FTUS41 KRLX 281000 AAC
TAFCRW
TAF AMD
KCRW 281047Z 2811/2906 00000KT 1SM BR BKN001 BKN040
     FM281130 00000KT 1SM BR BKN005
     FM281200 00000KT 3SM BR BKN008
     FM281300 00000KT P6SM BKN009
     FM281500 VRB03KT P6SM SCT015=

USA.gov is the U.S. government's official web portal to all federal, state and local government web resources and services.